sensor_id;sensor_type;location;lat;lon;timestamp;P1;durP1;ratioP1;P2;durP2;ratioP2
61960;SDS011;47923;42.506;24.192;2023-07-02T00:01:40;9.15;;;5.80;;
61960;SDS011;47923;42.506;24.192;2023-07-02T00:04:05;8.90;;;6.80;;
61960;SDS011;47923;42.506;24.192;2023-07-02T00:06:34;9.13;;;5.57;;
61960;SDS011;47923;42.506;24.192;2023-07-02T00:09:05;8.30;;;5.57;;
61960;SDS011;47923;42.506;24.192;2023-07-02T00:11:31;10.20;;;5.88;;
61960;SDS011;47923;42.506;24.192;2023-07-02T00:13:58;11.02;;;5.68;;
61960;SDS011;47923;42.506;24.192;2023-07-02T00:16:23;9.30;;;6.45;;
61960;SDS011;47923;42.506;24.192;2023-07-02T00:18:49;8.38;;;5.20;;
61960;SDS011;47923;42.506;24.192;2023-07-02T00:21:18;9.75;;;5.95;;
61960;SDS011;47923;42.506;24.192;2023-07-02T00:23:44;8.60;;;5.50;;
61960;SDS011;47923;42.506;24.192;2023-07-02T00:26:10;8.52;;;5.57;;
61960;SDS011;47923;42.506;24.192;2023-07-02T00:28:35;9.73;;;5.68;;
61960;SDS011;47923;42.506;24.192;2023-07-02T00:31:01;10.55;;;6.63;;
61960;SDS011;47923;42.506;24.192;2023-07-02T00:33:27;9.27;;;5.70;;
61960;SDS011;47923;42.506;24.192;2023-07-02T00:35:54;8.30;;;5.45;;
61960;SDS011;47923;42.506;24.192;2023-07-02T00:38:20;7.88;;;5.75;;
61960;SDS011;47923;42.506;24.192;2023-07-02T00:40:45;10.68;;;6.75;;
61960;SDS011;47923;42.506;24.192;2023-07-02T00:43:11;8.00;;;5.03;;
61960;SDS011;47923;42.506;24.192;2023-07-02T00:45:41;9.68;;;5.95;;
61960;SDS011;47923;42.506;24.192;2023-07-02T00:48:06;10.95;;;6.25;;
61960;SDS011;47923;42.506;24.192;2023-07-02T00:50:32;9.50;;;5.45;;
61960;SDS011;47923;42.506;24.192;2023-07-02T00:52:58;10.38;;;5.53;;
61960;SDS011;47923;42.506;24.192;2023-07-02T00:55:23;8.38;;;5.10;;
61960;SDS011;47923;42.506;24.192;2023-07-02T00:57:49;9.90;;;5.25;;
61960;SDS011;47923;42.506;24.192;2023-07-02T01:00:15;9.07;;;5.72;;
61960;SDS011;47923;42.506;24.192;2023-07-02T01:02:41;10.13;;;5.15;;
61960;SDS011;47923;42.506;24.192;2023-07-02T01:05:18;9.50;;;6.10;;
61960;SDS011;47923;42.506;24.192;2023-07-02T01:07:46;9.27;;;5.40;;
61960;SDS011;47923;42.506;24.192;2023-07-02T01:10:12;8.75;;;5.38;;
61960;SDS011;47923;42.506;24.192;2023-07-02T01:12:37;9.35;;;5.70;;
61960;SDS011;47923;42.506;24.192;2023-07-02T01:15:04;7.80;;;5.50;;
61960;SDS011;47923;42.506;24.192;2023-07-02T01:17:31;8.43;;;5.38;;
61960;SDS011;47923;42.506;24.192;2023-07-02T01:20:07;10.07;;;5.50;;
61960;SDS011;47923;42.506;24.192;2023-07-02T01:22:33;9.10;;;5.43;;
61960;SDS011;47923;42.506;24.192;2023-07-02T01:24:59;8.02;;;5.45;;
61960;SDS011;47923;42.506;24.192;2023-07-02T01:27:27;8.30;;;5.88;;
61960;SDS011;47923;42.506;24.192;2023-07-02T01:29:54;8.80;;;5.60;;
61960;SDS011;47923;42.506;24.192;2023-07-02T01:32:19;8.50;;;6.00;;
61960;SDS011;47923;42.506;24.192;2023-07-02T01:34:45;8.52;;;5.88;;
61960;SDS011;47923;42.506;24.192;2023-07-02T01:37:14;8.98;;;6.15;;
61960;SDS011;47923;42.506;24.192;2023-07-02T01:39:40;9.80;;;6.05;;
61960;SDS011;47923;42.506;24.192;2023-07-02T01:42:15;9.25;;;6.50;;
61960;SDS011;47923;42.506;24.192;2023-07-02T01:44:42;8.77;;;5.30;;
61960;SDS011;47923;42.506;24.192;2023-07-02T01:47:09;8.50;;;5.63;;
61960;SDS011;47923;42.506;24.192;2023-07-02T01:49:34;8.65;;;5.57;;
61960;SDS011;47923;42.506;24.192;2023-07-02T01:52:02;9.13;;;6.18;;
61960;SDS011;47923;42.506;24.192;2023-07-02T01:54:29;8.68;;;5.85;;
61960;SDS011;47923;42.506;24.192;2023-07-02T01:56:57;9.93;;;6.30;;
61960;SDS011;47923;42.506;24.192;2023-07-02T01:59:23;10.82;;;5.45;;
61960;SDS011;47923;42.506;24.192;2023-07-02T02:01:49;9.75;;;5.63;;
61960;SDS011;47923;42.506;24.192;2023-07-02T02:04:14;10.48;;;6.32;;
61960;SDS011;47923;42.506;24.192;2023-07-02T02:06:40;8.40;;;6.03;;
61960;SDS011;47923;42.506;24.192;2023-07-02T02:09:06;11.90;;;6.40;;
61960;SDS011;47923;42.506;24.192;2023-07-02T02:11:33;8.05;;;5.95;;
61960;SDS011;47923;42.506;24.192;2023-07-02T02:14:00;8.93;;;5.57;;
61960;SDS011;47923;42.506;24.192;2023-07-02T02:16:26;9.63;;;5.88;;
61960;SDS011;47923;42.506;24.192;2023-07-02T02:18:52;9.73;;;5.20;;
61960;SDS011;47923;42.506;24.192;2023-07-02T02:21:18;10.18;;;5.63;;
61960;SDS011;47923;42.506;24.192;2023-07-02T02:23:44;8.50;;;4.88;;
61960;SDS011;47923;42.506;24.192;2023-07-02T02:26:10;8.55;;;5.85;;
61960;SDS011;47923;42.506;24.192;2023-07-02T02:28:35;8.80;;;5.45;;
61960;SDS011;47923;42.506;24.192;2023-07-02T02:31:01;9.82;;;6.18;;
61960;SDS011;47923;42.506;24.192;2023-07-02T02:33:27;11.45;;;6.18;;
61960;SDS011;47923;42.506;24.192;2023-07-02T02:35:53;14.95;;;6.55;;
61960;SDS011;47923;42.506;24.192;2023-07-02T02:38:18;12.65;;;6.43;;
61960;SDS011;47923;42.506;24.192;2023-07-02T02:40:44;11.45;;;6.75;;
61960;SDS011;47923;42.506;24.192;2023-07-02T02:43:09;10.00;;;6.25;;
61960;SDS011;47923;42.506;24.192;2023-07-02T02:45:35;10.55;;;5.90;;
61960;SDS011;47923;42.506;24.192;2023-07-02T02:48:00;9.65;;;5.88;;
61960;SDS011;47923;42.506;24.192;2023-07-02T02:50:26;8.82;;;5.65;;
61960;SDS011;47923;42.506;24.192;2023-07-02T02:52:52;10.55;;;7.05;;
61960;SDS011;47923;42.506;24.192;2023-07-02T02:55:18;10.60;;;7.50;;
61960;SDS011;47923;42.506;24.192;2023-07-02T02:57:43;12.25;;;7.90;;
61960;SDS011;47923;42.506;24.192;2023-07-02T03:00:09;9.00;;;6.60;;
61960;SDS011;47923;42.506;24.192;2023-07-02T03:02:36;11.70;;;7.10;;
61960;SDS011;47923;42.506;24.192;2023-07-02T03:05:02;9.77;;;6.53;;
61960;SDS011;47923;42.506;24.192;2023-07-02T03:07:28;11.52;;;6.25;;
61960;SDS011;47923;42.506;24.192;2023-07-02T03:09:54;12.05;;;5.78;;
61960;SDS011;47923;42.506;24.192;2023-07-02T03:12:19;8.80;;;6.00;;
61960;SDS011;47923;42.506;24.192;2023-07-02T03:14:45;13.38;;;5.78;;
61960;SDS011;47923;42.506;24.192;2023-07-02T03:17:12;9.00;;;6.25;;
61960;SDS011;47923;42.506;24.192;2023-07-02T03:19:38;9.00;;;5.70;;
61960;SDS011;47923;42.506;24.192;2023-07-02T03:22:03;11.82;;;6.30;;
61960;SDS011;47923;42.506;24.192;2023-07-02T03:24:29;10.20;;;5.90;;
61960;SDS011;47923;42.506;24.192;2023-07-02T03:26:54;10.48;;;6.43;;
61960;SDS011;47923;42.506;24.192;2023-07-02T03:29:20;10.23;;;6.15;;
61960;SDS011;47923;42.506;24.192;2023-07-02T03:31:45;9.20;;;6.38;;
61960;SDS011;47923;42.506;24.192;2023-07-02T03:34:11;12.30;;;6.97;;
61960;SDS011;47923;42.506;24.192;2023-07-02T03:36:37;10.27;;;6.10;;
61960;SDS011;47923;42.506;24.192;2023-07-02T03:39:03;10.73;;;5.68;;
61960;SDS011;47923;42.506;24.192;2023-07-02T03:41:29;10.52;;;5.47;;
61960;SDS011;47923;42.506;24.192;2023-07-02T03:43:55;9.25;;;5.35;;
61960;SDS011;47923;42.506;24.192;2023-07-02T03:46:21;7.95;;;4.72;;
61960;SDS011;47923;42.506;24.192;2023-07-02T03:48:46;11.80;;;5.40;;
61960;SDS011;47923;42.506;24.192;2023-07-02T03:51:12;7.45;;;4.40;;
61960;SDS011;47923;42.506;24.192;2023-07-02T03:53:39;8.70;;;4.13;;
61960;SDS011;47923;42.506;24.192;2023-07-02T03:56:07;8.23;;;4.63;;
61960;SDS011;47923;42.506;24.192;2023-07-02T03:58:33;9.13;;;5.18;;
61960;SDS011;47923;42.506;24.192;2023-07-02T04:00:59;8.75;;;4.50;;
61960;SDS011;47923;42.506;24.192;2023-07-02T04:03:24;8.38;;;5.45;;
61960;SDS011;47923;42.506;24.192;2023-07-02T04:05:50;8.07;;;4.72;;
61960;SDS011;47923;42.506;24.192;2023-07-02T04:08:15;8.25;;;5.00;;
61960;SDS011;47923;42.506;24.192;2023-07-02T04:10:41;8.20;;;5.30;;
61960;SDS011;47923;42.506;24.192;2023-07-02T04:13:06;8.55;;;6.13;;
61960;SDS011;47923;42.506;24.192;2023-07-02T04:15:32;8.98;;;6.68;;
61960;SDS011;47923;42.506;24.192;2023-07-02T04:17:58;8.90;;;5.95;;
61960;SDS011;47923;42.506;24.192;2023-07-02T04:20:23;9.68;;;6.47;;
61960;SDS011;47923;42.506;24.192;2023-07-02T04:22:50;8.55;;;6.22;;
61960;SDS011;47923;42.506;24.192;2023-07-02T04:25:16;10.50;;;6.75;;
61960;SDS011;47923;42.506;24.192;2023-07-02T04:27:42;8.82;;;5.80;;
61960;SDS011;47923;42.506;24.192;2023-07-02T04:30:08;10.10;;;5.95;;
61960;SDS011;47923;42.506;24.192;2023-07-02T04:32:35;8.70;;;5.28;;
61960;SDS011;47923;42.506;24.192;2023-07-02T04:35:01;8.20;;;5.25;;
61960;SDS011;47923;42.506;24.192;2023-07-02T04:37:27;9.60;;;6.78;;
61960;SDS011;47923;42.506;24.192;2023-07-02T04:39:53;9.38;;;6.50;;
61960;SDS011;47923;42.506;24.192;2023-07-02T04:42:19;8.38;;;5.28;;
61960;SDS011;47923;42.506;24.192;2023-07-02T04:44:45;9.15;;;6.70;;
61960;SDS011;47923;42.506;24.192;2023-07-02T04:47:10;8.60;;;5.95;;
61960;SDS011;47923;42.506;24.192;2023-07-02T04:49:36;8.80;;;5.72;;
61960;SDS011;47923;42.506;24.192;2023-07-02T04:52:02;10.48;;;6.07;;
61960;SDS011;47923;42.506;24.192;2023-07-02T04:54:28;10.20;;;7.55;;
61960;SDS011;47923;42.506;24.192;2023-07-02T04:56:53;9.88;;;7.15;;
61960;SDS011;47923;42.506;24.192;2023-07-02T04:59:20;11.45;;;7.30;;
61960;SDS011;47923;42.506;24.192;2023-07-02T05:01:46;9.30;;;6.18;;
61960;SDS011;47923;42.506;24.192;2023-07-02T05:04:11;10.38;;;6.07;;
61960;SDS011;47923;42.506;24.192;2023-07-02T05:06:37;10.07;;;6.88;;
61960;SDS011;47923;42.506;24.192;2023-07-02T05:09:03;15.73;;;8.07;;
61960;SDS011;47923;42.506;24.192;2023-07-02T05:11:29;11.95;;;7.10;;
61960;SDS011;47923;42.506;24.192;2023-07-02T05:13:54;12.13;;;7.35;;
61960;SDS011;47923;42.506;24.192;2023-07-02T05:16:20;13.18;;;8.07;;
61960;SDS011;47923;42.506;24.192;2023-07-02T05:18:45;13.15;;;7.95;;
61960;SDS011;47923;42.506;24.192;2023-07-02T05:21:11;11.55;;;7.10;;
61960;SDS011;47923;42.506;24.192;2023-07-02T05:23:36;11.15;;;7.05;;
61960;SDS011;47923;42.506;24.192;2023-07-02T05:26:02;19.40;;;11.80;;
61960;SDS011;47923;42.506;24.192;2023-07-02T05:28:28;15.75;;;10.75;;
61960;SDS011;47923;42.506;24.192;2023-07-02T05:30:53;13.43;;;8.90;;
61960;SDS011;47923;42.506;24.192;2023-07-02T05:33:18;13.02;;;8.30;;
61960;SDS011;47923;42.506;24.192;2023-07-02T05:35:44;10.82;;;7.03;;
61960;SDS011;47923;42.506;24.192;2023-07-02T05:38:11;11.50;;;7.32;;
61960;SDS011;47923;42.506;24.192;2023-07-02T05:40:36;11.15;;;7.68;;
61960;SDS011;47923;42.506;24.192;2023-07-02T05:43:02;11.50;;;8.73;;
61960;SDS011;47923;42.506;24.192;2023-07-02T05:45:28;10.95;;;7.88;;
61960;SDS011;47923;42.506;24.192;2023-07-02T05:47:54;12.52;;;9.07;;
61960;SDS011;47923;42.506;24.192;2023-07-02T05:50:19;10.07;;;7.75;;
61960;SDS011;47923;42.506;24.192;2023-07-02T05:52:45;9.55;;;7.47;;
61960;SDS011;47923;42.506;24.192;2023-07-02T05:55:10;11.85;;;7.13;;
61960;SDS011;47923;42.506;24.192;2023-07-02T05:57:36;11.27;;;8.27;;
61960;SDS011;47923;42.506;24.192;2023-07-02T06:00:05;11.20;;;7.97;;
61960;SDS011;47923;42.506;24.192;2023-07-02T06:02:31;10.38;;;7.43;;
61960;SDS011;47923;42.506;24.192;2023-07-02T06:04:57;11.43;;;8.05;;
61960;SDS011;47923;42.506;24.192;2023-07-02T06:07:23;11.23;;;8.00;;
61960;SDS011;47923;42.506;24.192;2023-07-02T06:09:49;10.50;;;7.75;;
61960;SDS011;47923;42.506;24.192;2023-07-02T06:12:15;10.18;;;7.22;;
61960;SDS011;47923;42.506;24.192;2023-07-02T06:14:40;11.48;;;8.30;;
61960;SDS011;47923;42.506;24.192;2023-07-02T06:17:06;12.82;;;8.27;;
61960;SDS011;47923;42.506;24.192;2023-07-02T06:19:33;12.77;;;8.55;;
61960;SDS011;47923;42.506;24.192;2023-07-02T06:21:59;11.50;;;8.35;;
61960;SDS011;47923;42.506;24.192;2023-07-02T06:24:25;12.82;;;8.70;;
61960;SDS011;47923;42.506;24.192;2023-07-02T06:26:50;13.25;;;9.05;;
61960;SDS011;47923;42.506;24.192;2023-07-02T06:29:16;16.73;;;11.73;;
61960;SDS011;47923;42.506;24.192;2023-07-02T06:31:41;13.65;;;10.35;;
61960;SDS011;47923;42.506;24.192;2023-07-02T06:34:07;13.13;;;8.70;;
61960;SDS011;47923;42.506;24.192;2023-07-02T06:36:33;10.98;;;7.38;;
61960;SDS011;47923;42.506;24.192;2023-07-02T06:38:59;11.40;;;7.88;;
61960;SDS011;47923;42.506;24.192;2023-07-02T06:41:25;10.10;;;7.45;;
61960;SDS011;47923;42.506;24.192;2023-07-02T06:43:50;9.75;;;6.28;;
61960;SDS011;47923;42.506;24.192;2023-07-02T06:46:16;9.75;;;6.10;;
61960;SDS011;47923;42.506;24.192;2023-07-02T06:48:41;8.15;;;5.30;;
61960;SDS011;47923;42.506;24.192;2023-07-02T06:51:06;9.35;;;5.45;;
61960;SDS011;47923;42.506;24.192;2023-07-02T06:53:33;8.70;;;4.68;;
61960;SDS011;47923;42.506;24.192;2023-07-02T06:55:58;8.23;;;4.32;;
61960;SDS011;47923;42.506;24.192;2023-07-02T06:58:24;8.25;;;5.13;;
61960;SDS011;47923;42.506;24.192;2023-07-02T07:00:49;9.20;;;4.72;;
61960;SDS011;47923;42.506;24.192;2023-07-02T07:03:16;8.35;;;4.53;;
61960;SDS011;47923;42.506;24.192;2023-07-02T07:05:41;8.15;;;5.03;;
61960;SDS011;47923;42.506;24.192;2023-07-02T07:08:07;8.73;;;4.90;;
61960;SDS011;47923;42.506;24.192;2023-07-02T07:10:32;10.18;;;5.68;;
61960;SDS011;47923;42.506;24.192;2023-07-02T07:13:00;9.52;;;5.72;;
61960;SDS011;47923;42.506;24.192;2023-07-02T07:15:29;8.15;;;4.30;;
61960;SDS011;47923;42.506;24.192;2023-07-02T07:17:57;5.75;;;3.35;;
61960;SDS011;47923;42.506;24.192;2023-07-02T07:20:22;5.85;;;3.40;;
61960;SDS011;47923;42.506;24.192;2023-07-02T07:22:48;6.35;;;3.08;;
61960;SDS011;47923;42.506;24.192;2023-07-02T07:25:13;5.60;;;2.95;;
61960;SDS011;47923;42.506;24.192;2023-07-02T07:27:39;7.18;;;3.00;;
61960;SDS011;47923;42.506;24.192;2023-07-02T07:30:04;4.47;;;2.58;;
61960;SDS011;47923;42.506;24.192;2023-07-02T07:32:30;5.03;;;2.85;;
61960;SDS011;47923;42.506;24.192;2023-07-02T07:34:56;6.57;;;2.72;;
61960;SDS011;47923;42.506;24.192;2023-07-02T07:37:21;4.22;;;2.38;;
61960;SDS011;47923;42.506;24.192;2023-07-02T07:39:46;3.30;;;1.95;;
61960;SDS011;47923;42.506;24.192;2023-07-02T07:42:13;3.88;;;1.80;;
61960;SDS011;47923;42.506;24.192;2023-07-02T07:44:40;4.47;;;1.90;;
61960;SDS011;47923;42.506;24.192;2023-07-02T07:47:05;2.97;;;1.55;;
61960;SDS011;47923;42.506;24.192;2023-07-02T07:49:31;3.67;;;1.90;;
61960;SDS011;47923;42.506;24.192;2023-07-02T07:51:56;2.17;;;1.20;;
61960;SDS011;47923;42.506;24.192;2023-07-02T07:54:22;3.90;;;1.15;;
61960;SDS011;47923;42.506;24.192;2023-07-02T07:56:47;2.75;;;1.60;;
61960;SDS011;47923;42.506;24.192;2023-07-02T07:59:13;3.90;;;1.35;;
61960;SDS011;47923;42.506;24.192;2023-07-02T08:01:39;8.20;;;1.70;;
61960;SDS011;47923;42.506;24.192;2023-07-02T08:04:05;4.20;;;1.50;;
61960;SDS011;47923;42.506;24.192;2023-07-02T08:06:30;5.32;;;1.65;;
61960;SDS011;47923;42.506;24.192;2023-07-02T08:08:56;2.90;;;1.50;;
61960;SDS011;47923;42.506;24.192;2023-07-02T08:11:22;5.10;;;1.80;;
61960;SDS011;47923;42.506;24.192;2023-07-02T08:13:47;3.95;;;1.10;;
61960;SDS011;47923;42.506;24.192;2023-07-02T08:16:13;5.45;;;1.38;;
61960;SDS011;47923;42.506;24.192;2023-07-02T08:18:38;5.40;;;1.50;;
61960;SDS011;47923;42.506;24.192;2023-07-02T08:21:04;4.30;;;1.50;;
61960;SDS011;47923;42.506;24.192;2023-07-02T08:23:31;3.17;;;1.35;;
61960;SDS011;47923;42.506;24.192;2023-07-02T08:25:57;2.42;;;1.38;;
61960;SDS011;47923;42.506;24.192;2023-07-02T08:28:22;4.05;;;1.40;;
61960;SDS011;47923;42.506;24.192;2023-07-02T08:30:48;3.65;;;1.60;;
61960;SDS011;47923;42.506;24.192;2023-07-02T08:33:13;2.22;;;1.20;;
61960;SDS011;47923;42.506;24.192;2023-07-02T08:35:39;3.25;;;1.67;;
61960;SDS011;47923;42.506;24.192;2023-07-02T08:38:04;2.38;;;1.40;;
61960;SDS011;47923;42.506;24.192;2023-07-02T08:40:30;3.08;;;1.55;;
61960;SDS011;47923;42.506;24.192;2023-07-02T08:42:55;3.17;;;1.60;;
61960;SDS011;47923;42.506;24.192;2023-07-02T08:45:22;3.80;;;1.58;;
61960;SDS011;47923;42.506;24.192;2023-07-02T08:47:51;4.55;;;2.50;;
61960;SDS011;47923;42.506;24.192;2023-07-02T08:50:21;6.32;;;2.95;;
61960;SDS011;47923;42.506;24.192;2023-07-02T08:52:47;10.48;;;3.58;;
61960;SDS011;47923;42.506;24.192;2023-07-02T08:55:12;6.00;;;2.85;;
61960;SDS011;47923;42.506;24.192;2023-07-02T08:57:38;9.68;;;3.78;;
61960;SDS011;47923;42.506;24.192;2023-07-02T09:00:04;6.85;;;3.47;;
61960;SDS011;47923;42.506;24.192;2023-07-02T09:02:34;5.10;;;2.95;;
61960;SDS011;47923;42.506;24.192;2023-07-02T09:05:00;6.45;;;2.90;;
61960;SDS011;47923;42.506;24.192;2023-07-02T09:07:27;6.50;;;3.13;;
61960;SDS011;47923;42.506;24.192;2023-07-02T09:09:52;7.97;;;3.15;;
61960;SDS011;47923;42.506;24.192;2023-07-02T09:12:28;5.35;;;3.03;;
61960;SDS011;47923;42.506;24.192;2023-07-02T09:14:55;5.80;;;2.90;;
61960;SDS011;47923;42.506;24.192;2023-07-02T09:17:33;7.22;;;3.97;;
61960;SDS011;47923;42.506;24.192;2023-07-02T09:20:03;7.13;;;3.45;;
61960;SDS011;47923;42.506;24.192;2023-07-02T09:22:32;6.03;;;3.03;;
61960;SDS011;47923;42.506;24.192;2023-07-02T09:24:58;6.72;;;3.15;;
61960;SDS011;47923;42.506;24.192;2023-07-02T09:27:40;5.57;;;3.22;;
61960;SDS011;47923;42.506;24.192;2023-07-02T09:30:07;7.85;;;3.60;;
61960;SDS011;47923;42.506;24.192;2023-07-02T09:32:41;7.35;;;3.70;;
61960;SDS011;47923;42.506;24.192;2023-07-02T09:35:08;5.88;;;3.00;;
61960;SDS011;47923;42.506;24.192;2023-07-02T09:37:33;7.20;;;3.33;;
61960;SDS011;47923;42.506;24.192;2023-07-02T09:39:59;5.10;;;2.55;;
61960;SDS011;47923;42.506;24.192;2023-07-02T09:42:26;6.15;;;2.90;;
61960;SDS011;47923;42.506;24.192;2023-07-02T09:44:54;4.93;;;2.72;;
61960;SDS011;47923;42.506;24.192;2023-07-02T09:47:21;5.88;;;2.75;;
61960;SDS011;47923;42.506;24.192;2023-07-02T09:52:22;8.00;;;3.28;;
61960;SDS011;47923;42.506;24.192;2023-07-02T09:54:48;4.72;;;2.25;;
61960;SDS011;47923;42.506;24.192;2023-07-02T09:57:14;9.68;;;4.88;;
61960;SDS011;47923;42.506;24.192;2023-07-02T09:59:40;6.40;;;3.08;;
61960;SDS011;47923;42.506;24.192;2023-07-02T10:02:06;5.10;;;2.60;;
61960;SDS011;47923;42.506;24.192;2023-07-02T10:04:40;4.97;;;2.63;;
61960;SDS011;47923;42.506;24.192;2023-07-02T10:07:10;5.10;;;2.67;;
61960;SDS011;47923;42.506;24.192;2023-07-02T10:09:38;5.90;;;2.92;;
61960;SDS011;47923;42.506;24.192;2023-07-02T10:12:27;5.80;;;2.75;;
61960;SDS011;47923;42.506;24.192;2023-07-02T10:14:55;9.70;;;6.35;;
61960;SDS011;47923;42.506;24.192;2023-07-02T10:17:25;5.63;;;2.90;;
61960;SDS011;47923;42.506;24.192;2023-07-02T10:20:05;5.55;;;2.38;;
61960;SDS011;47923;42.506;24.192;2023-07-02T10:25:29;9.25;;;2.80;;
61960;SDS011;47923;42.506;24.192;2023-07-02T10:27:56;4.13;;;2.28;;
61960;SDS011;47923;42.506;24.192;2023-07-02T10:33:08;5.38;;;2.53;;
61960;SDS011;47923;42.506;24.192;2023-07-02T10:35:38;6.53;;;2.40;;
61960;SDS011;47923;42.506;24.192;2023-07-02T10:38:06;7.22;;;2.30;;
61960;SDS011;47923;42.506;24.192;2023-07-02T10:40:32;5.47;;;2.15;;
61960;SDS011;47923;42.506;24.192;2023-07-02T10:42:58;4.45;;;2.38;;
61960;SDS011;47923;42.506;24.192;2023-07-02T10:45:34;4.40;;;2.35;;
61960;SDS011;47923;42.506;24.192;2023-07-02T10:48:03;8.50;;;2.97;;
61960;SDS011;47923;42.506;24.192;2023-07-02T10:50:33;5.75;;;2.58;;
61960;SDS011;47923;42.506;24.192;2023-07-02T10:52:59;6.53;;;2.85;;
61960;SDS011;47923;42.506;24.192;2023-07-02T10:55:25;5.45;;;2.53;;
61960;SDS011;47923;42.506;24.192;2023-07-02T10:58:02;6.40;;;2.38;;
61960;SDS011;47923;42.506;24.192;2023-07-02T11:00:32;6.18;;;2.40;;
61960;SDS011;47923;42.506;24.192;2023-07-02T11:02:58;5.15;;;2.30;;
61960;SDS011;47923;42.506;24.192;2023-07-02T11:05:23;5.75;;;2.67;;
61960;SDS011;47923;42.506;24.192;2023-07-02T11:07:49;5.10;;;2.45;;
61960;SDS011;47923;42.506;24.192;2023-07-02T11:10:22;5.43;;;2.80;;
61960;SDS011;47923;42.506;24.192;2023-07-02T11:12:48;5.22;;;2.38;;
61960;SDS011;47923;42.506;24.192;2023-07-02T11:15:14;4.95;;;2.30;;
61960;SDS011;47923;42.506;24.192;2023-07-02T11:17:42;4.97;;;2.65;;
61960;SDS011;47923;42.506;24.192;2023-07-02T11:20:08;4.95;;;2.55;;
61960;SDS011;47923;42.506;24.192;2023-07-02T11:22:36;4.80;;;2.60;;
61960;SDS011;47923;42.506;24.192;2023-07-02T11:25:12;5.22;;;2.63;;
61960;SDS011;47923;42.506;24.192;2023-07-02T11:27:40;5.50;;;2.60;;
61960;SDS011;47923;42.506;24.192;2023-07-02T11:30:07;4.70;;;2.28;;
61960;SDS011;47923;42.506;24.192;2023-07-02T11:32:54;4.97;;;2.67;;
61960;SDS011;47923;42.506;24.192;2023-07-02T11:35:21;5.78;;;2.50;;
61960;SDS011;47923;42.506;24.192;2023-07-02T11:37:47;5.90;;;2.70;;
61960;SDS011;47923;42.506;24.192;2023-07-02T11:40:19;5.35;;;2.78;;
61960;SDS011;47923;42.506;24.192;2023-07-02T11:42:45;5.13;;;2.58;;
61960;SDS011;47923;42.506;24.192;2023-07-02T11:45:10;5.15;;;2.72;;
61960;SDS011;47923;42.506;24.192;2023-07-02T11:47:37;4.93;;;2.50;;
61960;SDS011;47923;42.506;24.192;2023-07-02T11:50:03;24.58;;;22.83;;
61960;SDS011;47923;42.506;24.192;2023-07-02T11:52:29;6.25;;;3.78;;
61960;SDS011;47923;42.506;24.192;2023-07-02T11:54:54;4.75;;;2.92;;
61960;SDS011;47923;42.506;24.192;2023-07-02T11:57:20;7.47;;;3.13;;
61960;SDS011;47923;42.506;24.192;2023-07-02T11:59:46;6.10;;;3.22;;
61960;SDS011;47923;42.506;24.192;2023-07-02T12:02:12;7.10;;;3.33;;
61960;SDS011;47923;42.506;24.192;2023-07-02T12:04:38;6.88;;;3.20;;
61960;SDS011;47923;42.506;24.192;2023-07-02T12:07:03;6.15;;;3.00;;
61960;SDS011;47923;42.506;24.192;2023-07-02T12:09:29;5.63;;;2.88;;
61960;SDS011;47923;42.506;24.192;2023-07-02T12:11:55;5.72;;;3.40;;
61960;SDS011;47923;42.506;24.192;2023-07-02T12:14:20;5.68;;;2.80;;
61960;SDS011;47923;42.506;24.192;2023-07-02T12:16:46;5.68;;;3.00;;
61960;SDS011;47923;42.506;24.192;2023-07-02T12:19:11;7.50;;;3.28;;
61960;SDS011;47923;42.506;24.192;2023-07-02T12:21:37;7.03;;;3.03;;
61960;SDS011;47923;42.506;24.192;2023-07-02T12:24:02;5.60;;;3.10;;
61960;SDS011;47923;42.506;24.192;2023-07-02T12:26:28;5.80;;;3.38;;
61960;SDS011;47923;42.506;24.192;2023-07-02T12:28:54;6.25;;;3.08;;
61960;SDS011;47923;42.506;24.192;2023-07-02T12:31:20;6.18;;;3.33;;
61960;SDS011;47923;42.506;24.192;2023-07-02T12:33:45;6.72;;;3.38;;
61960;SDS011;47923;42.506;24.192;2023-07-02T12:36:11;5.35;;;3.08;;
61960;SDS011;47923;42.506;24.192;2023-07-02T12:38:37;6.00;;;3.38;;
61960;SDS011;47923;42.506;24.192;2023-07-02T12:41:02;8.10;;;3.28;;
61960;SDS011;47923;42.506;24.192;2023-07-02T12:43:28;6.15;;;3.53;;
61960;SDS011;47923;42.506;24.192;2023-07-02T12:45:53;7.50;;;3.85;;
61960;SDS011;47923;42.506;24.192;2023-07-02T12:48:19;6.05;;;3.22;;
61960;SDS011;47923;42.506;24.192;2023-07-02T12:50:54;4.22;;;2.35;;
61960;SDS011;47923;42.506;24.192;2023-07-02T12:53:24;5.63;;;3.10;;
61960;SDS011;47923;42.506;24.192;2023-07-02T12:55:50;6.07;;;2.95;;
61960;SDS011;47923;42.506;24.192;2023-07-02T12:58:16;6.70;;;3.92;;
61960;SDS011;47923;42.506;24.192;2023-07-02T13:00:41;6.15;;;3.47;;
61960;SDS011;47923;42.506;24.192;2023-07-02T13:03:09;8.98;;;3.55;;
61960;SDS011;47923;42.506;24.192;2023-07-02T13:05:36;5.65;;;2.85;;
61960;SDS011;47923;42.506;24.192;2023-07-02T13:08:02;6.57;;;3.67;;
61960;SDS011;47923;42.506;24.192;2023-07-02T13:10:28;5.72;;;3.20;;
61960;SDS011;47923;42.506;24.192;2023-07-02T13:12:55;7.07;;;3.30;;
61960;SDS011;47923;42.506;24.192;2023-07-02T13:15:21;7.00;;;3.67;;
61960;SDS011;47923;42.506;24.192;2023-07-02T13:17:46;7.15;;;3.30;;
61960;SDS011;47923;42.506;24.192;2023-07-02T13:20:12;6.22;;;3.40;;
61960;SDS011;47923;42.506;24.192;2023-07-02T13:22:38;6.53;;;3.40;;
61960;SDS011;47923;42.506;24.192;2023-07-02T13:25:03;7.22;;;3.50;;
61960;SDS011;47923;42.506;24.192;2023-07-02T13:27:29;6.07;;;2.92;;
61960;SDS011;47923;42.506;24.192;2023-07-02T13:29:55;7.10;;;3.75;;
61960;SDS011;47923;42.506;24.192;2023-07-02T13:32:20;5.65;;;3.35;;
61960;SDS011;47923;42.506;24.192;2023-07-02T13:34:46;5.90;;;3.28;;
61960;SDS011;47923;42.506;24.192;2023-07-02T13:37:12;7.05;;;3.72;;
61960;SDS011;47923;42.506;24.192;2023-07-02T13:39:39;7.07;;;4.05;;
61960;SDS011;47923;42.506;24.192;2023-07-02T13:42:04;6.40;;;3.60;;
61960;SDS011;47923;42.506;24.192;2023-07-02T13:44:30;6.47;;;3.40;;
61960;SDS011;47923;42.506;24.192;2023-07-02T13:46:56;10.38;;;3.88;;
61960;SDS011;47923;42.506;24.192;2023-07-02T13:49:22;7.88;;;4.00;;
61960;SDS011;47923;42.506;24.192;2023-07-02T13:51:47;6.90;;;3.75;;
61960;SDS011;47923;42.506;24.192;2023-07-02T13:54:14;7.10;;;3.75;;
61960;SDS011;47923;42.506;24.192;2023-07-02T13:56:40;7.25;;;3.92;;
61960;SDS011;47923;42.506;24.192;2023-07-02T13:59:06;5.82;;;3.47;;
61960;SDS011;47923;42.506;24.192;2023-07-02T14:01:32;7.43;;;3.50;;
61960;SDS011;47923;42.506;24.192;2023-07-02T14:03:58;5.93;;;3.30;;
61960;SDS011;47923;42.506;24.192;2023-07-02T14:06:25;9.52;;;4.30;;
61960;SDS011;47923;42.506;24.192;2023-07-02T14:08:50;5.68;;;3.60;;
61960;SDS011;47923;42.506;24.192;2023-07-02T14:11:16;6.80;;;3.80;;
61960;SDS011;47923;42.506;24.192;2023-07-02T14:13:42;8.05;;;4.10;;
61960;SDS011;47923;42.506;24.192;2023-07-02T14:16:07;7.25;;;3.97;;
61960;SDS011;47923;42.506;24.192;2023-07-02T14:18:33;7.18;;;3.72;;
61960;SDS011;47923;42.506;24.192;2023-07-02T14:20:58;7.60;;;3.78;;
61960;SDS011;47923;42.506;24.192;2023-07-02T14:23:24;8.00;;;4.05;;
61960;SDS011;47923;42.506;24.192;2023-07-02T14:25:49;9.70;;;4.13;;
61960;SDS011;47923;42.506;24.192;2023-07-02T14:28:15;8.75;;;4.93;;
61960;SDS011;47923;42.506;24.192;2023-07-02T14:30:41;9.18;;;4.85;;
61960;SDS011;47923;42.506;24.192;2023-07-02T14:33:07;9.82;;;5.03;;
61960;SDS011;47923;42.506;24.192;2023-07-02T14:35:33;12.73;;;5.30;;